createdAt,value
2022-11-28T00:00:56.566Z,10.03
2022-11-28T00:01:56.629Z,10.06
2022-11-28T00:02:56.607Z,10.03
2022-11-28T00:03:56.391Z,10.03
2022-11-28T00:04:56.334Z,10.04
2022-11-28T00:05:56.273Z,10.07
2022-11-28T00:06:56.218Z,10.06
2022-11-28T00:07:56.199Z,10.04
2022-11-28T00:08:56.098Z,10.03
2022-11-28T00:09:56.041Z,10.10
2022-11-28T00:10:55.983Z,10.10
2022-11-28T00:11:55.924Z,9.97
2022-11-28T00:12:55.861Z,10.01
2022-11-28T00:13:55.811Z,10.03
2022-11-28T00:14:55.743Z,10.07
2022-11-28T00:15:55.736Z,10.06
2022-11-28T00:16:55.625Z,10.04
2022-11-28T00:17:55.664Z,10.04
2022-11-28T00:18:55.508Z,10.04
2022-11-28T00:19:55.447Z,10.03
2022-11-28T00:20:55.391Z,10.06
2022-11-28T00:21:55.330Z,10.06
2022-11-28T00:22:55.277Z,10.07
2022-11-28T00:23:55.300Z,10.04
2022-11-28T00:24:55.157Z,10.12
2022-11-28T00:25:55.097Z,10.09
2022-11-28T00:26:55.041Z,10.10
2022-11-28T00:27:54.988Z,10.00
2022-11-28T00:28:54.923Z,10.09
2022-11-28T00:29:54.864Z,10.07
2022-11-28T00:30:54.800Z,10.14
2022-11-28T00:31:54.792Z,10.06
2022-11-28T00:32:54.690Z,10.03
2022-11-28T00:33:54.735Z,10.00
2022-11-28T00:34:54.564Z,10.07
2022-11-28T00:35:54.514Z,10.03
2022-11-28T00:36:54.450Z,10.12
2022-11-28T00:37:54.395Z,10.03
2022-11-28T00:38:54.335Z,10.07
2022-11-28T00:39:54.272Z,10.09
2022-11-28T00:40:54.217Z,10.00
2022-11-28T00:41:54.163Z,10.03
2022-11-28T00:42:54.100Z,10.09
2022-11-28T00:43:54.041Z,10.04
2022-11-28T00:44:53.980Z,10.09
2022-11-28T00:45:53.975Z,10.03
2022-11-28T00:46:53.864Z,10.03
2022-11-28T00:47:53.809Z,10.01
2022-11-28T00:48:53.740Z,10.07
2022-11-28T00:49:53.800Z,10.14
2022-11-28T00:50:53.634Z,10.03
2022-11-28T00:51:53.573Z,10.10
2022-11-28T00:52:53.506Z,10.09
2022-11-28T00:53:53.450Z,10.04
2022-11-28T00:54:53.387Z,10.00
2022-11-28T00:55:53.335Z,10.00
2022-11-28T00:56:53.280Z,10.06
2022-11-28T00:57:53.215Z,10.06
2022-11-28T00:58:53.155Z,10.07
2022-11-28T00:59:53.096Z,10.01
2022-11-28T01:00:53.093Z,10.09
2022-11-28T01:01:53.012Z,9.99
2022-11-28T01:02:52.924Z,10.06
2022-11-28T01:03:52.862Z,10.09
2022-11-28T01:04:52.806Z,10.01
2022-11-28T01:05:52.853Z,10.06
2022-11-28T01:06:52.687Z,10.01
2022-11-28T01:07:52.656Z,10.03
2022-11-28T01:08:52.569Z,10.10
2022-11-28T01:09:52.509Z,10.03
2022-11-28T01:10:52.449Z,10.04
2022-11-28T01:11:52.391Z,10.03
2022-11-28T01:12:52.336Z,10.04
2022-11-28T01:13:52.275Z,10.06
2022-11-28T01:14:52.215Z,10.04
2022-11-28T01:15:52.228Z,10.04
2022-11-28T01:16:52.153Z,10.04
2022-11-28T01:17:52.092Z,10.09
2022-11-28T01:18:51.978Z,10.03
2022-11-28T01:19:51.932Z,10.06
2022-11-28T01:20:51.864Z,10.07
2022-11-28T01:21:51.910Z,10.07
2022-11-28T01:22:51.749Z,10.03
2022-11-28T01:23:51.689Z,10.03
2022-11-28T01:24:51.628Z,10.01
2022-11-28T01:25:51.581Z,10.01
2022-11-28T01:26:51.509Z,10.04
2022-11-28T01:27:51.450Z,10.03
2022-11-28T01:28:51.394Z,10.07
2022-11-28T01:29:51.338Z,10.03
2022-11-28T01:30:51.280Z,10.00
2022-11-28T01:31:51.242Z,10.03
2022-11-28T01:32:51.158Z,10.00
2022-11-28T01:33:51.103Z,10.04
2022-11-28T01:34:51.049Z,10.03
2022-11-28T01:35:50.989Z,10.04
2022-11-28T01:36:50.921Z,10.10
2022-11-28T01:37:50.962Z,10.07
2022-11-28T01:38:50.807Z,10.01
2022-11-28T01:39:50.750Z,10.01
2022-11-28T01:40:50.685Z,10.04
2022-11-28T01:41:50.628Z,10.09
2022-11-28T01:42:50.571Z,10.06
2022-11-28T01:43:50.513Z,10.06
2022-11-28T01:44:50.450Z,10.10
2022-11-28T01:45:50.392Z,10.03
2022-11-28T01:46:50.417Z,10.01
2022-11-28T01:47:50.280Z,10.00
2022-11-28T01:48:50.226Z,10.04
2022-11-28T01:49:50.161Z,9.97
2022-11-28T01:50:50.100Z,10.06
2022-11-28T01:51:50.046Z,10.00
2022-11-28T01:52:49.983Z,10.07
2022-11-28T01:53:50.033Z,10.03
2022-11-28T01:54:49.861Z,10.00
2022-11-28T01:55:49.806Z,10.04
2022-11-28T01:56:49.749Z,10.01
2022-11-28T01:57:49.690Z,10.06
2022-11-28T01:58:49.626Z,10.06
2022-11-28T01:59:49.574Z,10.06
2022-11-28T02:00:49.544Z,10.01
2022-11-28T02:01:49.492Z,10.09
2022-11-28T02:02:49.398Z,10.03
2022-11-28T02:03:49.336Z,10.07
2022-11-28T02:04:49.277Z,10.03
2022-11-28T02:05:49.217Z,10.03
2022-11-28T02:06:49.163Z,10.07
2022-11-28T02:07:49.168Z,10.04
2022-11-28T02:08:49.039Z,10.14
2022-11-28T02:09:49.092Z,10.04
2022-11-28T02:10:48.922Z,10.01
2022-11-28T02:11:48.865Z,10.03
2022-11-28T02:12:48.805Z,10.01
2022-11-28T02:13:48.747Z,10.04
2022-11-28T02:14:48.686Z,10.03
2022-11-28T02:15:48.663Z,10.07
2022-11-28T02:16:48.571Z,10.00
2022-11-28T02:17:48.514Z,10.03
2022-11-28T02:18:50.565Z,10.03
2022-11-28T02:19:48.397Z,10.03
2022-11-28T02:20:48.340Z,10.14
2022-11-28T02:21:48.276Z,10.01
2022-11-28T02:22:48.219Z,10.06
2022-11-28T02:23:48.162Z,10.03
2022-11-28T02:24:48.106Z,10.04
2022-11-28T02:25:48.152Z,10.10
2022-11-28T02:26:47.987Z,10.03
2022-11-28T02:27:47.929Z,10.06
2022-11-28T02:28:47.863Z,10.06
2022-11-28T02:29:47.807Z,10.01
2022-11-28T02:30:47.751Z,10.06
2022-11-28T02:31:47.760Z,10.14
2022-11-28T02:32:47.635Z,10.01
2022-11-28T02:33:47.578Z,10.01
2022-11-28T02:34:47.536Z,10.03
2022-11-28T02:35:47.458Z,10.07
2022-11-28T02:36:47.396Z,10.06
2022-11-28T02:37:47.343Z,10.09
2022-11-28T02:38:47.279Z,10.04
2022-11-28T02:39:47.218Z,10.01
2022-11-28T02:40:47.166Z,10.00
2022-11-28T02:41:47.207Z,10.03
2022-11-28T02:42:47.043Z,10.00
2022-11-28T02:43:46.986Z,10.06
2022-11-28T02:44:46.930Z,10.01
2022-11-28T02:45:46.875Z,10.03
2022-11-28T02:46:46.906Z,10.10
2022-11-28T02:47:46.757Z,10.09
2022-11-28T02:48:46.693Z,10.03
2022-11-28T02:49:46.636Z,10.01
2022-11-28T02:50:46.569Z,10.00
2022-11-28T02:51:46.516Z,10.00
2022-11-28T02:52:46.458Z,10.04
2022-11-28T02:53:46.399Z,9.99
2022-11-28T02:54:46.361Z,10.12
2022-11-28T02:55:46.280Z,10.04
2022-11-28T02:56:46.233Z,10.04
2022-11-28T02:57:46.270Z,10.07
2022-11-28T02:58:46.121Z,9.99
2022-11-28T02:59:46.048Z,10.01
2022-11-28T03:00:46.008Z,10.01
2022-11-28T03:01:52.657Z,9.99
2022-11-28T03:02:48.626Z,10.06
2022-11-28T03:03:45.810Z,10.01
2022-11-28T03:04:45.752Z,10.06
2022-11-28T03:05:46.632Z,10.06
2022-11-28T03:06:45.637Z,10.09
2022-11-28T03:07:45.632Z,10.07
2022-11-28T03:08:45.515Z,10.06
2022-11-28T03:09:45.458Z,10.15
2022-11-28T03:10:45.395Z,10.10
2022-11-28T03:11:47.150Z,10.10
2022-11-28T03:12:45.281Z,10.03
2022-11-28T03:13:45.324Z,10.03
2022-11-28T03:14:45.219Z,10.03
2022-11-28T03:15:45.102Z,10.03
2022-11-28T03:16:45.088Z,10.14
2022-11-28T03:17:44.985Z,10.04
2022-11-28T03:18:44.931Z,10.04
2022-11-28T03:19:44.869Z,10.04
2022-11-28T03:20:44.823Z,10.09
2022-11-28T03:21:44.749Z,10.06
2022-11-28T03:22:44.697Z,10.00
2022-11-28T03:23:44.637Z,10.04
2022-11-28T03:24:44.848Z,10.07
2022-11-28T03:25:44.516Z,10.10
2022-11-28T03:26:44.459Z,10.04
2022-11-28T03:27:44.401Z,10.03
2022-11-28T03:28:44.343Z,10.06
2022-11-28T03:29:44.380Z,10.01
2022-11-28T03:30:44.219Z,10.04
2022-11-28T03:31:44.208Z,10.03
2022-11-28T03:32:44.111Z,10.00
2022-11-28T03:33:44.046Z,10.06
2022-11-28T03:34:44.289Z,10.01
2022-11-28T03:35:43.930Z,10.00
2022-11-28T03:36:43.870Z,10.07
2022-11-28T03:37:43.811Z,10.09
2022-11-28T03:38:43.757Z,10.00
2022-11-28T03:39:43.692Z,10.06
2022-11-28T03:40:43.636Z,10.15
2022-11-28T03:41:43.577Z,10.03
2022-11-28T03:42:43.527Z,10.04
2022-11-28T03:43:43.455Z,10.09
2022-11-28T03:44:43.766Z,10.01
2022-11-28T03:45:43.501Z,10.00
2022-11-28T03:46:43.324Z,10.06
2022-11-28T03:47:43.219Z,10.00
2022-11-28T03:48:43.162Z,10.07
2022-11-28T03:49:43.103Z,10.06
2022-11-28T03:50:43.043Z,10.17
2022-11-28T03:51:42.985Z,10.00
2022-11-28T03:52:42.936Z,10.03
2022-11-28T03:53:42.866Z,10.09
2022-11-28T03:54:43.126Z,10.09
2022-11-28T03:55:42.781Z,10.01
2022-11-28T03:56:42.695Z,10.06
2022-11-28T03:57:42.636Z,10.07
2022-11-28T03:58:42.573Z,9.99
2022-11-28T03:59:42.523Z,10.01
2022-11-28T04:00:42.546Z,10.09
2022-11-28T04:01:42.505Z,10.04
2022-11-28T04:02:42.407Z,10.03
2022-11-28T04:03:42.279Z,10.03
2022-11-28T04:04:42.426Z,10.15
2022-11-28T04:05:42.170Z,10.07
2022-11-28T04:06:42.102Z,10.06
2022-11-28T04:07:42.092Z,10.04
2022-11-28T04:08:41.989Z,10.03
2022-11-28T04:09:41.929Z,10.04
2022-11-28T04:10:41.874Z,10.01
2022-11-28T04:11:41.808Z,10.00
2022-11-28T04:12:41.754Z,10.06
2022-11-28T04:13:41.695Z,10.01
2022-11-28T04:14:41.985Z,10.04
2022-11-28T04:15:41.581Z,10.09
2022-11-28T04:16:41.577Z,10.03
2022-11-28T04:17:41.558Z,10.01
2022-11-28T04:18:41.401Z,10.10
2022-11-28T04:19:41.347Z,10.07
2022-11-28T04:20:41.282Z,10.07
2022-11-28T04:21:41.304Z,10.03
2022-11-28T04:22:41.163Z,10.07
2022-11-28T04:23:41.105Z,10.01
2022-11-28T04:24:41.466Z,10.01
2022-11-28T04:25:40.991Z,10.10
2022-11-28T04:26:40.926Z,10.03
2022-11-28T04:27:40.870Z,10.09
2022-11-28T04:28:40.816Z,10.09
2022-11-28T04:29:40.755Z,9.99
2022-11-28T04:30:40.696Z,10.01
2022-11-28T04:31:40.686Z,10.01
2022-11-28T04:32:40.579Z,10.03
2022-11-28T04:33:40.658Z,10.06
2022-11-28T04:34:40.656Z,10.00
2022-11-28T04:35:40.402Z,10.14
2022-11-28T04:36:40.409Z,10.07
2022-11-28T04:37:40.280Z,10.06
2022-11-28T04:38:40.224Z,10.12
2022-11-28T04:39:40.164Z,10.03
2022-11-28T04:40:40.109Z,10.03
2022-11-28T04:41:40.050Z,10.07
2022-11-28T04:42:39.991Z,10.04
2022-11-28T04:43:39.931Z,10.07
2022-11-28T04:44:39.973Z,10.01
2022-11-28T04:45:39.919Z,10.07
2022-11-28T04:46:39.750Z,10.04
2022-11-28T04:47:39.689Z,10.03
2022-11-28T04:48:39.635Z,10.04
2022-11-28T04:49:39.679Z,10.06
2022-11-28T04:50:39.523Z,10.01
2022-11-28T04:51:39.457Z,10.03
2022-11-28T04:52:39.398Z,10.01
2022-11-28T04:53:39.338Z,10.06
2022-11-28T04:54:39.285Z,10.03
2022-11-28T04:55:39.225Z,10.09
2022-11-28T04:56:39.164Z,10.06
2022-11-28T04:57:39.103Z,10.06
2022-11-28T04:58:39.048Z,10.09
2022-11-28T04:59:38.991Z,10.07
2022-11-28T05:00:39.008Z,10.03
2022-11-28T05:01:38.931Z,10.03
2022-11-28T05:02:38.865Z,10.03
2022-11-28T05:03:42.413Z,10.00
2022-11-28T05:04:38.701Z,10.04
2022-11-28T05:05:38.743Z,10.06
2022-11-28T05:06:38.589Z,10.09
2022-11-28T05:07:38.610Z,10.04
2022-11-28T05:08:38.457Z,10.07
2022-11-28T05:09:38.396Z,10.07
2022-11-28T05:10:38.346Z,10.03
2022-11-28T05:11:38.281Z,10.03
2022-11-28T05:12:38.222Z,10.03
2022-11-28T05:13:38.168Z,10.01
2022-11-28T05:14:38.106Z,10.06
2022-11-28T05:15:38.047Z,10.06
2022-11-28T05:16:38.059Z,10.09
2022-11-28T05:17:42.238Z,9.99
2022-11-28T05:18:37.871Z,10.12
2022-11-28T05:19:37.812Z,10.01
2022-11-28T05:20:37.759Z,10.06
2022-11-28T05:21:37.807Z,10.01
2022-11-28T05:22:37.636Z,10.01
2022-11-28T05:23:37.573Z,10.09
2022-11-28T05:24:37.520Z,10.01
2022-11-28T05:25:37.463Z,10.01
2022-11-28T05:26:37.401Z,10.06
2022-11-28T05:27:37.342Z,9.93
2022-11-28T05:28:37.279Z,10.06
2022-11-28T05:29:37.219Z,9.99
2022-11-28T05:30:37.168Z,10.07
2022-11-28T05:31:37.132Z,10.04
2022-11-28T05:32:37.049Z,9.96
2022-11-28T05:33:36.993Z,10.01
2022-11-28T05:34:36.926Z,10.07
2022-11-28T05:35:36.868Z,9.91
2022-11-28T05:36:36.815Z,10.03
2022-11-28T05:37:36.859Z,9.94
2022-11-28T05:38:36.704Z,9.96
2022-11-28T05:39:36.631Z,10.09
2022-11-28T05:40:36.580Z,9.97
2022-11-28T05:41:36.513Z,9.97
2022-11-28T05:42:36.461Z,9.97
2022-11-28T05:43:36.398Z,10.04
2022-11-28T05:44:36.342Z,10.06
2022-11-28T05:45:36.294Z,9.94
2022-11-28T05:46:36.221Z,9.96
2022-11-28T05:47:36.166Z,9.94
2022-11-28T05:48:36.104Z,9.96
2022-11-28T05:49:36.050Z,9.96
2022-11-28T05:50:39.910Z,9.96
2022-11-28T05:51:35.927Z,9.99
2022-11-28T05:52:35.868Z,9.97
2022-11-28T05:53:35.996Z,9.91
2022-11-28T05:54:35.756Z,10.01
2022-11-28T05:55:35.693Z,9.97
2022-11-28T05:56:40.899Z,9.94
2022-11-28T05:57:35.582Z,10.03
2022-11-28T05:58:35.520Z,9.94
2022-11-28T05:59:35.457Z,10.06
2022-11-28T06:00:35.398Z,9.89
2022-11-28T06:01:35.339Z,9.96
2022-11-28T06:02:35.355Z,9.94
2022-11-28T06:03:35.224Z,9.89
2022-11-28T06:04:35.207Z,10.03
2022-11-28T06:05:42.606Z,9.88
2022-11-28T06:06:35.053Z,9.99
2022-11-28T06:07:35.030Z,9.93
2022-11-28T06:08:34.926Z,10.00
2022-11-28T06:09:34.970Z,10.00
2022-11-28T06:10:34.885Z,10.01
2022-11-28T06:11:34.753Z,9.94
2022-11-28T06:12:34.692Z,10.00
2022-11-28T06:13:34.637Z,9.94
2022-11-28T06:14:34.576Z,10.03
2022-11-28T06:15:37.981Z,9.91
2022-11-28T06:16:34.565Z,9.94
2022-11-28T06:17:34.403Z,9.99
2022-11-28T06:18:34.340Z,9.96
2022-11-28T06:19:34.282Z,10.00
2022-11-28T06:20:34.226Z,9.89
2022-11-28T06:21:34.163Z,9.89
2022-11-28T06:22:34.106Z,9.89
2022-11-28T06:23:34.051Z,9.99
2022-11-28T06:24:33.985Z,9.89
2022-11-28T06:25:34.023Z,9.91
2022-11-28T06:26:33.872Z,9.96
2022-11-28T06:27:33.812Z,9.94
2022-11-28T06:28:33.759Z,9.89
2022-11-28T06:29:33.698Z,9.94
2022-11-28T06:30:33.662Z,9.93
2022-11-28T06:31:33.633Z,9.99
2022-11-28T06:32:33.519Z,9.97
2022-11-28T06:33:33.461Z,9.88
2022-11-28T06:34:33.398Z,9.88
2022-11-28T06:35:33.340Z,10.06
2022-11-28T06:36:33.283Z,9.91
2022-11-28T06:37:33.222Z,9.97
2022-11-28T06:38:33.164Z,9.97
2022-11-28T06:39:33.106Z,10.00
2022-11-28T06:40:33.047Z,9.97
2022-11-28T06:41:33.085Z,9.96
2022-11-28T06:42:32.931Z,9.94
2022-11-28T06:43:32.871Z,10.01
2022-11-28T06:44:32.808Z,9.97
2022-11-28T06:45:32.851Z,9.94
2022-11-28T06:46:32.760Z,9.97
2022-11-28T06:47:32.633Z,9.94
2022-11-28T06:48:32.574Z,9.99
2022-11-28T06:49:32.526Z,9.91
2022-11-28T06:50:32.456Z,9.89
2022-11-28T06:51:32.397Z,9.89
2022-11-28T06:52:32.344Z,9.96
2022-11-28T06:53:32.282Z,9.96
2022-11-28T06:54:32.224Z,9.96
2022-11-28T06:55:32.158Z,10.00
2022-11-28T06:56:32.105Z,9.94
2022-11-28T06:57:32.148Z,9.93
2022-11-28T06:58:31.988Z,9.89
2022-11-28T06:59:31.932Z,9.91
2022-11-28T07:00:31.871Z,9.91
2022-11-28T07:01:31.852Z,9.89
2022-11-28T07:02:31.839Z,10.00
2022-11-28T07:03:31.688Z,9.89
2022-11-28T07:04:31.636Z,9.97
2022-11-28T07:05:31.574Z,9.96
2022-11-28T07:06:31.512Z,9.93
2022-11-28T07:07:31.535Z,9.96
2022-11-28T07:08:31.399Z,9.97
2022-11-28T07:09:31.342Z,9.94
2022-11-28T07:10:31.277Z,9.97
2022-11-28T07:11:31.221Z,9.93
2022-11-28T07:12:31.164Z,9.91
2022-11-28T07:13:31.204Z,9.97
2022-11-28T07:14:31.050Z,10.04
2022-11-28T07:15:30.982Z,9.99
2022-11-28T07:16:30.951Z,9.89
2022-11-28T07:17:30.866Z,9.93
2022-11-28T07:18:30.813Z,9.89
2022-11-28T07:19:30.752Z,9.94
2022-11-28T07:20:30.692Z,9.96
2022-11-28T07:21:30.630Z,9.93
2022-11-28T07:22:30.576Z,9.94
2022-11-28T07:23:30.516Z,9.88
2022-11-28T07:24:30.454Z,9.94
2022-11-28T07:25:30.396Z,9.89
2022-11-28T07:26:30.334Z,9.97
2022-11-28T07:27:30.275Z,9.93
2022-11-28T07:28:30.233Z,9.97
2022-11-28T07:29:30.259Z,9.93
2022-11-28T07:30:30.099Z,9.89
2022-11-28T07:31:30.108Z,9.93
2022-11-28T07:32:29.987Z,9.93
2022-11-28T07:33:29.931Z,9.96
2022-11-28T07:34:30.691Z,9.94
2022-11-28T07:35:29.805Z,9.94
2022-11-28T07:36:29.748Z,9.97
2022-11-28T07:37:29.688Z,9.88
2022-11-28T07:38:29.632Z,9.89
2022-11-28T07:39:29.572Z,9.94
2022-11-28T07:40:29.510Z,9.97
2022-11-28T07:41:29.463Z,9.99
2022-11-28T07:42:29.406Z,9.96
2022-11-28T07:43:29.334Z,9.93
2022-11-28T07:44:29.277Z,9.96
2022-11-28T07:45:47.133Z,9.94
2022-11-28T07:46:29.212Z,9.93
2022-11-28T07:47:29.110Z,9.94
2022-11-28T07:48:29.045Z,9.97
2022-11-28T07:49:28.987Z,9.94
2022-11-28T07:50:28.924Z,9.94
2022-11-28T07:51:28.865Z,9.96
2022-11-28T07:52:28.809Z,9.94
2022-11-28T07:53:28.751Z,9.97
2022-11-28T07:54:28.691Z,9.99
2022-11-28T07:55:28.637Z,9.96
2022-11-28T07:56:39.589Z,9.93
2022-11-28T07:57:28.510Z,9.96
2022-11-28T07:58:28.456Z,9.94
2022-11-28T07:59:28.399Z,9.89
2022-11-28T08:00:28.335Z,9.94
2022-11-28T08:01:28.282Z,9.93
2022-11-28T08:02:28.253Z,9.96
2022-11-28T08:03:28.164Z,9.96
2022-11-28T08:04:28.178Z,9.97
2022-11-28T08:05:28.044Z,9.99
2022-11-28T08:06:27.983Z,9.99
2022-11-28T08:07:28.033Z,9.94
2022-11-28T08:08:27.867Z,9.94
2022-11-28T08:09:27.811Z,9.96
2022-11-28T08:10:27.750Z,9.91
2022-11-28T08:11:27.692Z,9.97
2022-11-28T08:12:27.628Z,9.99
2022-11-28T08:13:27.573Z,9.97
2022-11-28T08:14:27.514Z,9.96
2022-11-28T08:15:27.452Z,9.88
2022-11-28T08:16:27.443Z,9.94
2022-11-28T08:17:27.385Z,9.96
2022-11-28T08:18:27.279Z,9.97
2022-11-28T08:19:30.576Z,9.89
2022-11-28T08:20:27.161Z,9.89
2022-11-28T08:21:27.200Z,9.96
2022-11-28T08:22:27.044Z,10.00
2022-11-28T08:23:26.980Z,9.91
2022-11-28T08:24:26.924Z,9.89
2022-11-28T08:25:26.872Z,9.97
2022-11-28T08:26:30.372Z,9.97
2022-11-28T08:27:26.752Z,9.91
2022-11-28T08:28:26.687Z,9.97
2022-11-28T08:29:26.643Z,9.93
2022-11-28T08:30:26.723Z,9.94
2022-11-28T08:31:26.635Z,9.89
2022-11-28T08:32:26.455Z,9.96
2022-11-28T08:33:26.396Z,9.94
2022-11-28T08:34:26.333Z,9.99
2022-11-28T08:35:26.276Z,9.91
2022-11-28T08:36:29.009Z,9.89
2022-11-28T08:37:26.159Z,10.06
2022-11-28T08:38:26.100Z,9.91
2022-11-28T08:39:26.040Z,9.99
2022-11-28T08:40:25.984Z,9.94
2022-11-28T08:41:25.924Z,10.01
2022-11-28T08:42:25.858Z,10.01
2022-11-28T08:43:25.802Z,10.01
2022-11-28T08:44:25.749Z,9.97
2022-11-28T08:45:25.698Z,9.93
2022-11-28T08:46:25.735Z,10.01
2022-11-28T08:47:25.570Z,10.01
2022-11-28T08:48:25.511Z,9.97
2022-11-28T08:49:25.455Z,9.96
2022-11-28T08:50:25.392Z,9.96
2022-11-28T08:51:25.334Z,10.00
2022-11-28T08:52:25.277Z,10.04
2022-11-28T08:53:25.215Z,10.00
2022-11-28T08:54:25.158Z,10.06
2022-11-28T08:55:32.158Z,10.09
2022-11-28T08:56:25.039Z,10.07
2022-11-28T08:57:25.097Z,9.91
2022-11-28T08:58:24.922Z,10.04
2022-11-28T08:59:24.862Z,10.09
2022-11-28T09:00:24.807Z,10.09
2022-11-28T09:01:24.893Z,10.04
2022-11-28T09:02:26.201Z,10.03
2022-11-28T09:03:24.692Z,10.09
2022-11-28T09:04:25.303Z,10.00
2022-11-28T09:05:24.521Z,10.06
2022-11-28T09:06:24.451Z,9.99
2022-11-28T09:07:24.448Z,10.00
2022-11-28T09:08:24.332Z,10.01
2022-11-28T09:09:24.286Z,10.06
2022-11-28T09:10:24.210Z,10.01
2022-11-28T09:11:24.155Z,10.04
2022-11-28T09:12:24.100Z,10.01
2022-11-28T09:13:24.042Z,10.01
2022-11-28T09:14:23.981Z,10.07
2022-11-28T09:15:23.918Z,10.04
2022-11-28T09:16:23.992Z,10.07
2022-11-28T09:17:23.873Z,10.04
2022-11-28T09:18:23.743Z,10.07
2022-11-28T09:19:23.690Z,10.10
2022-11-28T09:20:23.624Z,10.04
2022-11-28T09:21:23.569Z,10.10
2022-11-28T09:22:23.511Z,10.07
2022-11-28T09:23:23.454Z,9.94
2022-11-28T09:24:23.441Z,10.04
2022-11-28T09:25:23.336Z,10.04
2022-11-28T09:26:23.272Z,10.01
2022-11-28T09:27:23.219Z,9.96
2022-11-28T09:28:23.152Z,10.07
2022-11-28T09:29:23.101Z,10.09
2022-11-28T09:30:23.040Z,10.09
2022-11-28T09:31:23.065Z,10.04
2022-11-28T09:32:22.924Z,10.04
2022-11-28T09:33:22.860Z,9.99
2022-11-28T09:34:22.801Z,10.07
2022-11-28T09:35:22.741Z,10.00
2022-11-28T09:36:22.695Z,10.00
2022-11-28T09:37:22.634Z,10.07
2022-11-28T09:38:22.565Z,10.01
2022-11-28T09:39:22.510Z,10.12
2022-11-28T09:40:22.486Z,10.12
2022-11-28T09:41:22.390Z,10.10
2022-11-28T09:42:22.332Z,10.04
2022-11-28T09:43:22.274Z,10.07
2022-11-28T09:44:22.217Z,10.06
2022-11-28T09:45:23.761Z,10.07
2022-11-28T09:46:53.873Z,10.10
2022-11-28T09:47:57.726Z,9.99
2022-11-28T09:48:21.978Z,10.09
2022-11-28T09:49:21.925Z,10.10
2022-11-28T09:50:21.857Z,10.10
2022-11-28T09:51:21.801Z,10.07
2022-11-28T09:52:21.782Z,10.09
2022-11-28T09:53:21.706Z,10.09
2022-11-28T09:54:21.625Z,10.12
2022-11-28T09:55:21.572Z,10.04
2022-11-28T09:56:21.518Z,10.03
2022-11-28T09:57:21.451Z,10.07
2022-11-28T09:58:21.393Z,10.03
2022-11-28T09:59:21.335Z,10.04
2022-11-28T10:00:21.269Z,10.06
2022-11-28T10:01:21.213Z,10.01
2022-11-28T10:02:21.157Z,10.07
2022-11-28T10:03:21.149Z,10.03
2022-11-28T10:04:21.146Z,10.10
2022-11-28T10:05:20.979Z,10.03
2022-11-28T10:06:20.916Z,10.03
2022-11-28T10:07:20.898Z,10.07
2022-11-28T10:08:20.804Z,10.10
2022-11-28T10:09:20.847Z,10.01
2022-11-28T10:10:20.679Z,9.99
2022-11-28T10:11:20.630Z,10.01
2022-11-28T10:12:20.567Z,10.09
2022-11-28T10:13:20.509Z,10.10
2022-11-28T10:14:20.452Z,10.01
2022-11-28T10:15:20.387Z,10.04
2022-11-28T10:16:20.373Z,10.09
2022-11-28T10:17:20.286Z,10.09
2022-11-28T10:18:20.209Z,10.03
2022-11-28T10:19:52.240Z,10.03
2022-11-28T10:20:20.092Z,10.03
2022-11-28T10:21:20.035Z,10.07
2022-11-28T10:22:19.977Z,10.03
2022-11-28T10:23:19.927Z,10.06
2022-11-28T10:24:19.858Z,9.96
2022-11-28T10:25:19.810Z,9.97
2022-11-28T10:26:19.744Z,10.01
2022-11-28T10:27:23.972Z,10.01
2022-11-28T10:28:19.622Z,10.04
2022-11-28T10:29:19.566Z,10.01
2022-11-28T10:30:19.503Z,10.12
2022-11-28T10:31:19.500Z,10.09
2022-11-28T10:32:19.392Z,10.04
2022-11-28T10:33:19.329Z,10.18
2022-11-28T10:34:19.320Z,10.12
2022-11-28T10:35:21.771Z,10.07
2022-11-28T10:36:19.154Z,10.07
2022-11-28T10:37:19.097Z,10.12
2022-11-28T10:38:19.039Z,10.07
2022-11-28T10:39:18.984Z,10.03
2022-11-28T10:40:18.921Z,10.10
2022-11-28T10:41:18.984Z,10.15
2022-11-28T10:42:18.798Z,10.17
2022-11-28T10:43:18.743Z,10.15
2022-11-28T10:44:21.651Z,10.19
2022-11-28T10:45:18.630Z,10.14
2022-11-28T10:46:18.590Z,10.10
2022-11-28T10:47:18.517Z,10.14
2022-11-28T10:49:18.389Z,10.12
2022-11-28T10:50:18.334Z,10.17
2022-11-28T10:51:18.271Z,10.09
2022-11-28T10:52:18.215Z,10.12
2022-11-28T10:53:18.152Z,10.17
2022-11-28T10:54:18.102Z,10.17
2022-11-28T10:55:18.034Z,10.18
2022-11-28T10:56:17.974Z,10.10
2022-11-28T10:57:18.054Z,10.09
2022-11-28T10:58:17.861Z,10.10
2022-11-28T10:59:17.807Z,10.10
2022-11-28T11:00:17.749Z,10.18
2022-11-28T11:01:17.734Z,10.18
2022-11-28T11:02:17.622Z,10.19
2022-11-28T11:03:17.567Z,10.14
2022-11-28T11:04:17.523Z,10.09
2022-11-28T11:05:17.453Z,10.09
2022-11-28T11:06:17.388Z,10.12
2022-11-28T11:07:20.970Z,10.12
2022-11-28T11:08:17.292Z,10.15
2022-11-28T11:09:17.212Z,10.15
2022-11-28T11:10:17.155Z,10.15
2022-11-28T11:11:17.098Z,10.17
2022-11-28T11:12:17.039Z,10.12
2022-11-28T11:13:16.983Z,10.24
2022-11-28T11:14:16.921Z,10.21
2022-11-28T11:15:16.866Z,10.15
2022-11-28T11:16:16.847Z,10.09
2022-11-28T11:17:16.750Z,10.21
2022-11-28T11:18:16.683Z,10.15
2022-11-28T11:19:16.626Z,10.21
2022-11-28T11:20:16.571Z,10.09
2022-11-28T11:21:16.506Z,10.06
2022-11-28T11:22:16.450Z,10.12
2022-11-28T11:23:16.389Z,10.22
2022-11-28T11:24:16.333Z,10.19
2022-11-28T11:25:16.283Z,10.19
2022-11-28T11:26:51.750Z,10.19
2022-11-28T11:27:16.158Z,10.21
2022-11-28T11:28:16.112Z,10.21
2022-11-28T11:29:16.166Z,10.18
2022-11-28T11:30:15.982Z,10.18
2022-11-28T11:31:22.805Z,10.22
2022-11-28T11:32:15.860Z,10.19
2022-11-28T11:33:20.792Z,10.18
2022-11-28T11:34:15.750Z,10.24
2022-11-28T11:35:15.682Z,10.21
2022-11-28T11:36:15.627Z,10.18
2022-11-28T11:37:15.565Z,10.24
2022-11-28T11:38:18.335Z,10.24
2022-11-28T11:39:15.447Z,10.28
2022-11-28T11:40:15.396Z,10.22
2022-11-28T11:41:15.332Z,10.15
2022-11-28T11:42:15.275Z,10.22
2022-11-28T11:43:15.220Z,10.19
2022-11-28T11:44:15.160Z,10.22
2022-11-28T11:45:15.130Z,10.22
2022-11-28T11:46:15.103Z,10.26
2022-11-28T11:47:14.984Z,10.24
2022-11-28T11:48:14.924Z,10.19
2022-11-28T11:49:14.861Z,10.26
2022-11-28T11:50:14.800Z,10.21
2022-11-28T11:51:14.750Z,10.24
2022-11-28T11:52:14.689Z,10.33
2022-11-28T11:53:14.629Z,10.30
2022-11-28T11:54:14.572Z,10.28
2022-11-28T11:55:14.507Z,10.25
2022-11-28T11:56:14.447Z,10.30
2022-11-28T11:57:34.907Z,10.30
2022-11-28T11:58:14.333Z,10.26
2022-11-28T11:59:14.281Z,10.30
2022-11-28T12:00:14.214Z,10.25
2022-11-28T12:01:14.196Z,10.25
2022-11-28T12:02:14.136Z,10.26
2022-11-28T12:03:14.209Z,10.32
2022-11-28T12:04:43.301Z,10.34
2022-11-28T12:05:13.929Z,10.30
2022-11-28T12:06:15.101Z,10.34
2022-11-28T12:07:13.852Z,10.33
2022-11-28T12:08:13.748Z,10.34
2022-11-28T12:09:13.690Z,10.34
2022-11-28T12:10:13.628Z,10.26
2022-11-28T12:11:13.578Z,10.26
2022-11-28T12:12:13.512Z,10.34
2022-11-28T12:13:13.457Z,10.32
2022-11-28T12:14:13.390Z,10.34
2022-11-28T12:15:13.335Z,10.30
2022-11-28T12:16:13.341Z,10.32
2022-11-28T12:17:40.490Z,10.26
2022-11-28T12:18:13.156Z,10.28
2022-11-28T12:19:13.102Z,10.34
2022-11-28T12:20:13.047Z,10.26
2022-11-28T12:21:12.982Z,10.32
2022-11-28T12:22:12.931Z,10.28
2022-11-28T12:23:17.148Z,10.28
2022-11-28T12:24:12.806Z,10.30
2022-11-28T12:25:12.747Z,10.39
2022-11-28T12:26:12.688Z,10.28
2022-11-28T12:27:12.630Z,10.37
2022-11-28T12:28:12.579Z,10.28
2022-11-28T12:29:12.519Z,10.34
2022-11-28T12:30:12.455Z,10.33
2022-11-28T12:31:12.431Z,10.36
2022-11-28T12:32:12.337Z,10.39
2022-11-28T12:33:12.352Z,10.30
2022-11-28T12:34:12.218Z,10.33
2022-11-28T12:35:12.159Z,10.32
2022-11-28T12:36:12.110Z,10.36
2022-11-28T12:37:12.047Z,10.39
2022-11-28T12:38:12.312Z,10.34
2022-11-28T12:39:11.925Z,10.30
2022-11-28T12:40:11.866Z,10.28
2022-11-28T12:41:11.814Z,10.32
2022-11-28T12:42:11.752Z,10.28
2022-11-28T12:43:11.699Z,10.37
2022-11-28T12:44:11.632Z,10.42
2022-11-28T12:45:11.572Z,10.36
2022-11-28T12:46:11.532Z,10.32
2022-11-28T12:47:11.462Z,10.34
2022-11-28T12:48:11.405Z,10.37
2022-11-28T12:49:11.361Z,10.36
2022-11-28T12:50:11.290Z,10.36
2022-11-28T12:51:11.227Z,10.32
2022-11-28T12:52:11.162Z,10.32
2022-11-28T12:53:11.111Z,10.33
2022-11-28T12:54:11.046Z,10.28
2022-11-28T12:55:10.986Z,10.37
2022-11-28T12:56:10.944Z,10.40
2022-11-28T12:57:10.877Z,10.36
2022-11-28T12:58:10.809Z,10.39
2022-11-28T12:59:10.758Z,10.39